createdAt,value
2022-08-11T06:13:50.868Z,1016.82
2022-08-11T06:23:49.812Z,1016.70
2022-08-11T06:33:49.749Z,1016.78
2022-08-11T06:43:55.300Z,1016.76
2022-08-11T06:54:03.477Z,1016.80
2022-08-11T07:03:49.868Z,1016.77
2022-08-11T07:13:49.906Z,1016.87
2022-08-11T07:23:49.908Z,1016.72
2022-08-11T07:34:07.070Z,1016.71
2022-08-11T07:43:49.938Z,1016.74
2022-08-11T07:53:58.447Z,1016.73
2022-08-11T08:03:54.220Z,1016.70
2022-08-11T08:13:50.474Z,1016.74
2022-08-11T08:23:54.017Z,1016.83
2022-08-11T08:33:49.849Z,1016.65
2022-08-11T08:43:49.957Z,1016.59
2022-08-11T08:53:52.425Z,1016.60
2022-08-11T09:04:06.911Z,1016.45
2022-08-11T09:14:04.896Z,1016.47
2022-08-11T09:24:11.279Z,1016.29
2022-08-11T09:33:49.942Z,1016.25
2022-08-11T09:43:49.927Z,1016.22
2022-08-11T09:54:02.864Z,1016.05
2022-08-11T10:03:50.057Z,1016.01
2022-08-11T10:14:34.018Z,1015.87
2022-08-11T10:24:01.472Z,1015.70
2022-08-11T10:33:59.174Z,1015.62
2022-08-11T10:44:01.430Z,1015.34
2022-08-11T10:53:50.079Z,1015.35
2022-08-11T11:03:50.027Z,1015.25
2022-08-11T11:13:55.176Z,1015.18
2022-08-11T11:23:50.017Z,1015.12
2022-08-11T11:34:06.477Z,1015.03
2022-08-11T11:43:50.223Z,1015.02
2022-08-11T11:53:50.068Z,1015.07
2022-08-11T12:03:50.127Z,1014.89
2022-08-11T12:13:50.091Z,1014.79
2022-08-11T12:23:50.143Z,1014.74
2022-08-11T12:33:50.122Z,1014.54
2022-08-11T12:43:56.913Z,1014.46
2022-08-11T12:53:50.117Z,1014.41
2022-08-11T13:03:52.487Z,1014.27
2022-08-11T13:13:53.811Z,1014.11
2022-08-11T13:24:01.205Z,1013.88
2022-08-11T13:33:51.214Z,1013.94
2022-08-11T13:43:50.150Z,1013.83
2022-08-11T13:53:50.086Z,1013.81
2022-08-11T14:04:30.552Z,1013.80
2022-08-11T14:13:50.191Z,1013.62
2022-08-11T14:23:50.439Z,1013.62
2022-08-11T14:33:59.563Z,1013.52
2022-08-11T14:44:10.412Z,1013.39
2022-08-11T14:53:58.421Z,1013.28
2022-08-11T15:04:34.136Z,1013.25
2022-08-11T15:13:50.349Z,1013.21
2022-08-11T15:23:50.331Z,1013.06
2022-08-11T15:33:50.256Z,1013.07
2022-08-11T15:43:50.850Z,1012.95
2022-08-11T15:53:56.677Z,1012.87
2022-08-11T16:04:05.811Z,1012.81
2022-08-11T16:13:50.404Z,1012.72
2022-08-11T16:23:50.414Z,1012.69
2022-08-11T16:33:51.678Z,1012.72
2022-08-11T16:43:50.411Z,1012.61
2022-08-11T16:54:05.562Z,1012.58
2022-08-11T17:03:50.528Z,1012.50
2022-08-11T17:13:50.620Z,1012.29
2022-08-11T17:23:50.695Z,1012.35
2022-08-11T17:33:50.659Z,1012.32
2022-08-11T17:43:50.574Z,1012.37
2022-08-11T17:54:09.952Z,1012.32
2022-08-11T18:03:56.308Z,1012.39
2022-08-11T18:13:50.649Z,1012.45
2022-08-11T18:23:50.677Z,1012.62
2022-08-11T18:34:06.427Z,1012.66
2022-08-11T18:43:50.538Z,1012.73
2022-08-11T18:53:50.580Z,1012.71
2022-08-11T19:03:50.672Z,1012.88
2022-08-11T19:13:51.581Z,1012.91
